sensor_id;sensor_type;location;lat;lon;timestamp;temperature;humidity
2260;DHT22;333;48.800;9.530;2023-05-21T00:00:20;15.60;99.60
2260;DHT22;333;48.800;9.530;2023-05-21T00:02:47;15.60;99.60
2260;DHT22;333;48.800;9.530;2023-05-21T00:05:16;15.50;99.60
2260;DHT22;333;48.800;9.530;2023-05-21T00:07:44;15.50;99.60
2260;DHT22;333;48.800;9.530;2023-05-21T00:10:11;15.50;99.60
2260;DHT22;333;48.800;9.530;2023-05-21T00:12:39;15.50;99.60
2260;DHT22;333;48.800;9.530;2023-05-21T00:15:07;15.30;99.60
2260;DHT22;333;48.800;9.530;2023-05-21T00:17:34;15.40;99.60
2260;DHT22;333;48.800;9.530;2023-05-21T00:20:03;15.30;99.60
2260;DHT22;333;48.800;9.530;2023-05-21T00:22:32;15.30;99.60
2260;DHT22;333;48.800;9.530;2023-05-21T00:25:02;15.20;99.60
2260;DHT22;333;48.800;9.530;2023-05-21T00:27:29;15.10;99.60
2260;DHT22;333;48.800;9.530;2023-05-21T00:29:56;15.10;99.60
2260;DHT22;333;48.800;9.530;2023-05-21T00:32:23;15.10;99.60
2260;DHT22;333;48.800;9.530;2023-05-21T00:34:50;15.10;99.60
2260;DHT22;333;48.800;9.530;2023-05-21T00:37:17;15.10;99.60
2260;DHT22;333;48.800;9.530;2023-05-21T00:39:45;15.00;99.60
2260;DHT22;333;48.800;9.530;2023-05-21T00:42:13;14.90;99.60
2260;DHT22;333;48.800;9.530;2023-05-21T00:44:43;14.80;99.60
2260;DHT22;333;48.800;9.530;2023-05-21T00:47:12;14.90;99.60
2260;DHT22;333;48.800;9.530;2023-05-21T00:49:39;15.00;99.60
2260;DHT22;333;48.800;9.530;2023-05-21T00:52:06;15.00;99.60
2260;DHT22;333;48.800;9.530;2023-05-21T00:54:33;15.00;99.60
2260;DHT22;333;48.800;9.530;2023-05-21T00:57:02;15.00;99.60
2260;DHT22;333;48.800;9.530;2023-05-21T00:59:31;15.00;99.60
2260;DHT22;333;48.800;9.530;2023-05-21T01:01:59;15.00;99.60
2260;DHT22;333;48.800;9.530;2023-05-21T01:04:30;14.90;99.60
2260;DHT22;333;48.800;9.530;2023-05-21T01:06:58;15.00;99.60
2260;DHT22;333;48.800;9.530;2023-05-21T01:09:25;15.00;99.60
2260;DHT22;333;48.800;9.530;2023-05-21T01:11:53;14.90;99.60
2260;DHT22;333;48.800;9.530;2023-05-21T01:14:22;14.80;99.60
2260;DHT22;333;48.800;9.530;2023-05-21T01:16:51;14.80;99.60
2260;DHT22;333;48.800;9.530;2023-05-21T01:19:20;14.90;99.60
2260;DHT22;333;48.800;9.530;2023-05-21T01:21:50;15.00;99.60
2260;DHT22;333;48.800;9.530;2023-05-21T01:24:22;14.90;99.60
2260;DHT22;333;48.800;9.530;2023-05-21T01:26:49;14.70;99.60
2260;DHT22;333;48.800;9.530;2023-05-21T01:29:17;14.70;99.60
2260;DHT22;333;48.800;9.530;2023-05-21T01:31:56;14.70;99.60
2260;DHT22;333;48.800;9.530;2023-05-21T01:34:27;14.70;99.60
2260;DHT22;333;48.800;9.530;2023-05-21T01:37:07;14.60;99.60
2260;DHT22;333;48.800;9.530;2023-05-21T01:39:44;14.50;99.60
2260;DHT22;333;48.800;9.530;2023-05-21T01:42:14;14.40;99.60
2260;DHT22;333;48.800;9.530;2023-05-21T01:44:42;14.40;99.60
2260;DHT22;333;48.800;9.530;2023-05-21T01:47:11;14.60;99.60
2260;DHT22;333;48.800;9.530;2023-05-21T01:49:39;14.60;99.60
2260;DHT22;333;48.800;9.530;2023-05-21T01:52:08;14.50;99.60
2260;DHT22;333;48.800;9.530;2023-05-21T01:54:35;14.50;99.60
2260;DHT22;333;48.800;9.530;2023-05-21T01:57:04;14.40;99.60
2260;DHT22;333;48.800;9.530;2023-05-21T01:59:31;14.40;99.60
2260;DHT22;333;48.800;9.530;2023-05-21T02:01:58;14.40;99.60
2260;DHT22;333;48.800;9.530;2023-05-21T02:04:25;14.30;99.60
2260;DHT22;333;48.800;9.530;2023-05-21T02:06:52;14.40;99.60
2260;DHT22;333;48.800;9.530;2023-05-21T02:09:20;14.40;99.60
2260;DHT22;333;48.800;9.530;2023-05-21T02:11:47;14.20;99.60
2260;DHT22;333;48.800;9.530;2023-05-21T02:14:15;14.10;99.60
2260;DHT22;333;48.800;9.530;2023-05-21T02:16:42;14.10;99.60
2260;DHT22;333;48.800;9.530;2023-05-21T02:19:09;14.10;99.60
2260;DHT22;333;48.800;9.530;2023-05-21T02:21:36;14.10;99.60
2260;DHT22;333;48.800;9.530;2023-05-21T02:24:03;14.00;99.60
2260;DHT22;333;48.800;9.530;2023-05-21T02:26:31;14.20;99.60
2260;DHT22;333;48.800;9.530;2023-05-21T02:28:58;14.00;99.60
2260;DHT22;333;48.800;9.530;2023-05-21T02:31:26;14.00;99.60
2260;DHT22;333;48.800;9.530;2023-05-21T02:33:53;13.90;99.60
2260;DHT22;333;48.800;9.530;2023-05-21T02:36:20;14.00;99.60
2260;DHT22;333;48.800;9.530;2023-05-21T02:38:49;14.10;99.60
2260;DHT22;333;48.800;9.530;2023-05-21T02:41:17;14.10;99.60
2260;DHT22;333;48.800;9.530;2023-05-21T02:43:44;14.10;99.60
2260;DHT22;333;48.800;9.530;2023-05-21T02:46:11;14.00;99.60
2260;DHT22;333;48.800;9.530;2023-05-21T02:48:39;14.10;99.60
2260;DHT22;333;48.800;9.530;2023-05-21T02:51:06;13.90;99.60
2260;DHT22;333;48.800;9.530;2023-05-21T02:53:33;13.90;99.60
2260;DHT22;333;48.800;9.530;2023-05-21T02:56:00;14.10;99.60
2260;DHT22;333;48.800;9.530;2023-05-21T02:58:27;14.10;99.60
2260;DHT22;333;48.800;9.530;2023-05-21T03:00:54;14.00;99.60
2260;DHT22;333;48.800;9.530;2023-05-21T03:03:22;14.00;99.60
2260;DHT22;333;48.800;9.530;2023-05-21T03:05:51;13.80;99.60
2260;DHT22;333;48.800;9.530;2023-05-21T03:08:17;13.70;99.60
2260;DHT22;333;48.800;9.530;2023-05-21T03:10:45;13.60;99.60
2260;DHT22;333;48.800;9.530;2023-05-21T03:13:12;13.50;99.60
2260;DHT22;333;48.800;9.530;2023-05-21T03:15:39;13.60;99.60
2260;DHT22;333;48.800;9.530;2023-05-21T03:18:06;13.50;99.60
2260;DHT22;333;48.800;9.530;2023-05-21T03:20:33;13.50;99.60
2260;DHT22;333;48.800;9.530;2023-05-21T03:23:01;13.40;99.60
2260;DHT22;333;48.800;9.530;2023-05-21T03:25:29;13.40;99.60
2260;DHT22;333;48.800;9.530;2023-05-21T03:27:56;13.30;99.60
2260;DHT22;333;48.800;9.530;2023-05-21T03:30:23;13.50;99.60
2260;DHT22;333;48.800;9.530;2023-05-21T03:32:50;13.40;99.60
2260;DHT22;333;48.800;9.530;2023-05-21T03:35:17;13.30;99.60
2260;DHT22;333;48.800;9.530;2023-05-21T03:37:44;13.20;99.60
2260;DHT22;333;48.800;9.530;2023-05-21T03:40:13;13.30;99.60
2260;DHT22;333;48.800;9.530;2023-05-21T03:42:40;13.20;99.60
2260;DHT22;333;48.800;9.530;2023-05-21T03:45:08;13.10;99.60
2260;DHT22;333;48.800;9.530;2023-05-21T03:47:35;13.10;99.60
2260;DHT22;333;48.800;9.530;2023-05-21T03:50:02;13.00;99.60
2260;DHT22;333;48.800;9.530;2023-05-21T03:52:31;13.00;99.60
2260;DHT22;333;48.800;9.530;2023-05-21T03:54:57;13.10;99.60
2260;DHT22;333;48.800;9.530;2023-05-21T03:57:26;13.30;99.60
2260;DHT22;333;48.800;9.530;2023-05-21T03:59:53;13.10;99.60
2260;DHT22;333;48.800;9.530;2023-05-21T04:02:21;13.10;99.60
2260;DHT22;333;48.800;9.530;2023-05-21T04:04:48;13.10;99.60
2260;DHT22;333;48.800;9.530;2023-05-21T04:07:16;13.10;99.60
2260;DHT22;333;48.800;9.530;2023-05-21T04:09:44;13.10;99.60
2260;DHT22;333;48.800;9.530;2023-05-21T04:12:11;13.00;99.60
2260;DHT22;333;48.800;9.530;2023-05-21T04:14:41;13.00;99.60
2260;DHT22;333;48.800;9.530;2023-05-21T04:17:08;13.10;99.60
2260;DHT22;333;48.800;9.530;2023-05-21T04:19:37;13.20;99.60
2260;DHT22;333;48.800;9.530;2023-05-21T04:22:04;13.20;99.60
2260;DHT22;333;48.800;9.530;2023-05-21T04:24:31;13.30;99.60
2260;DHT22;333;48.800;9.530;2023-05-21T04:26:58;13.20;99.60
2260;DHT22;333;48.800;9.530;2023-05-21T04:29:26;13.20;99.60
2260;DHT22;333;48.800;9.530;2023-05-21T04:31:56;13.20;99.60
2260;DHT22;333;48.800;9.530;2023-05-21T04:34:23;13.30;99.60
2260;DHT22;333;48.800;9.530;2023-05-21T04:36:50;13.30;99.60
2260;DHT22;333;48.800;9.530;2023-05-21T04:39:18;13.40;99.60
2260;DHT22;333;48.800;9.530;2023-05-21T04:41:45;13.60;99.60
2260;DHT22;333;48.800;9.530;2023-05-21T04:44:13;13.70;99.60
2260;DHT22;333;48.800;9.530;2023-05-21T04:46:40;13.50;99.60
2260;DHT22;333;48.800;9.530;2023-05-21T04:49:11;13.50;99.60
2260;DHT22;333;48.800;9.530;2023-05-21T04:51:38;13.70;99.60
2260;DHT22;333;48.800;9.530;2023-05-21T04:54:06;13.70;99.60
2260;DHT22;333;48.800;9.530;2023-05-21T04:56:33;13.80;99.60
2260;DHT22;333;48.800;9.530;2023-05-21T04:59:00;13.70;99.60
2260;DHT22;333;48.800;9.530;2023-05-21T05:01:27;13.80;99.60
2260;DHT22;333;48.800;9.530;2023-05-21T05:03:54;14.00;99.60
2260;DHT22;333;48.800;9.530;2023-05-21T05:06:23;14.00;99.60
2260;DHT22;333;48.800;9.530;2023-05-21T05:08:51;14.10;99.60
2260;DHT22;333;48.800;9.530;2023-05-21T05:11:18;14.10;99.60
2260;DHT22;333;48.800;9.530;2023-05-21T05:13:45;14.10;99.60
2260;DHT22;333;48.800;9.530;2023-05-21T05:16:12;14.30;99.60
2260;DHT22;333;48.800;9.530;2023-05-21T05:18:42;14.30;99.60
2260;DHT22;333;48.800;9.530;2023-05-21T05:21:09;14.40;99.60
2260;DHT22;333;48.800;9.530;2023-05-21T05:23:37;14.50;99.60
2260;DHT22;333;48.800;9.530;2023-05-21T05:26:04;14.50;99.60
2260;DHT22;333;48.800;9.530;2023-05-21T05:28:31;14.70;99.60
2260;DHT22;333;48.800;9.530;2023-05-21T05:30:58;14.80;99.60
2260;DHT22;333;48.800;9.530;2023-05-21T05:33:25;14.80;99.60
2260;DHT22;333;48.800;9.530;2023-05-21T05:35:52;14.90;99.60
2260;DHT22;333;48.800;9.530;2023-05-21T05:38:19;15.10;99.60
2260;DHT22;333;48.800;9.530;2023-05-21T05:40:48;15.30;99.60
2260;DHT22;333;48.800;9.530;2023-05-21T05:43:15;15.60;99.60
2260;DHT22;333;48.800;9.530;2023-05-21T05:45:42;15.70;99.60
2260;DHT22;333;48.800;9.530;2023-05-21T05:48:10;15.80;99.60
2260;DHT22;333;48.800;9.530;2023-05-21T05:50:37;15.70;99.60
2260;DHT22;333;48.800;9.530;2023-05-21T05:53:04;15.60;99.60
2260;DHT22;333;48.800;9.530;2023-05-21T05:55:32;15.50;99.60
2260;DHT22;333;48.800;9.530;2023-05-21T05:58:00;15.30;99.60
2260;DHT22;333;48.800;9.530;2023-05-21T06:00:27;15.50;99.60
2260;DHT22;333;48.800;9.530;2023-05-21T06:02:54;15.60;99.60
2260;DHT22;333;48.800;9.530;2023-05-21T06:05:21;15.80;99.60
2260;DHT22;333;48.800;9.530;2023-05-21T06:07:48;16.00;99.60
2260;DHT22;333;48.800;9.530;2023-05-21T06:10:15;16.00;99.60
2260;DHT22;333;48.800;9.530;2023-05-21T06:12:43;16.10;99.60
2260;DHT22;333;48.800;9.530;2023-05-21T06:15:12;16.20;99.60
2260;DHT22;333;48.800;9.530;2023-05-21T06:17:41;16.50;99.60
2260;DHT22;333;48.800;9.530;2023-05-21T06:20:08;16.70;99.60
2260;DHT22;333;48.800;9.530;2023-05-21T06:22:36;16.90;99.60
2260;DHT22;333;48.800;9.530;2023-05-21T06:25:04;16.90;99.60
2260;DHT22;333;48.800;9.530;2023-05-21T06:27:31;17.20;99.60
2260;DHT22;333;48.800;9.530;2023-05-21T06:29:58;17.20;99.60
2260;DHT22;333;48.800;9.530;2023-05-21T06:32:26;17.30;99.60
2260;DHT22;333;48.800;9.530;2023-05-21T06:34:53;17.40;99.60
2260;DHT22;333;48.800;9.530;2023-05-21T06:37:20;17.40;99.60
2260;DHT22;333;48.800;9.530;2023-05-21T06:39:47;17.20;99.60
2260;DHT22;333;48.800;9.530;2023-05-21T06:42:15;17.30;99.60
2260;DHT22;333;48.800;9.530;2023-05-21T06:44:42;17.40;99.60
2260;DHT22;333;48.800;9.530;2023-05-21T06:47:08;17.30;99.60
2260;DHT22;333;48.800;9.530;2023-05-21T06:49:37;17.00;99.60
2260;DHT22;333;48.800;9.530;2023-05-21T06:52:04;17.00;99.60
2260;DHT22;333;48.800;9.530;2023-05-21T06:54:31;17.10;99.60
2260;DHT22;333;48.800;9.530;2023-05-21T06:56:59;17.30;99.60
2260;DHT22;333;48.800;9.530;2023-05-21T06:59:26;17.40;99.60
2260;DHT22;333;48.800;9.530;2023-05-21T07:01:53;17.50;99.60
2260;DHT22;333;48.800;9.530;2023-05-21T07:04:20;17.50;99.60
2260;DHT22;333;48.800;9.530;2023-05-21T07:06:48;17.70;99.60
2260;DHT22;333;48.800;9.530;2023-05-21T07:09:16;17.70;99.60
2260;DHT22;333;48.800;9.530;2023-05-21T07:11:43;18.00;99.60
2260;DHT22;333;48.800;9.530;2023-05-21T07:14:10;18.10;99.60
2260;DHT22;333;48.800;9.530;2023-05-21T07:16:38;18.20;99.60
2260;DHT22;333;48.800;9.530;2023-05-21T07:19:04;18.50;99.60
2260;DHT22;333;48.800;9.530;2023-05-21T07:21:32;18.70;99.60
2260;DHT22;333;48.800;9.530;2023-05-21T07:24:00;19.00;99.60
2260;DHT22;333;48.800;9.530;2023-05-21T07:26:27;19.30;99.60
2260;DHT22;333;48.800;9.530;2023-05-21T07:28:54;19.30;99.60
2260;DHT22;333;48.800;9.530;2023-05-21T07:31:21;19.60;99.60
2260;DHT22;333;48.800;9.530;2023-05-21T07:33:48;19.90;99.60
2260;DHT22;333;48.800;9.530;2023-05-21T07:36:15;20.10;99.60
2260;DHT22;333;48.800;9.530;2023-05-21T07:38:43;20.10;99.60
2260;DHT22;333;48.800;9.530;2023-05-21T07:41:11;20.30;99.60
2260;DHT22;333;48.800;9.530;2023-05-21T07:43:38;20.40;99.60
2260;DHT22;333;48.800;9.530;2023-05-21T07:46:05;19.90;99.60
2260;DHT22;333;48.800;9.530;2023-05-21T07:48:32;19.70;99.60
2260;DHT22;333;48.800;9.530;2023-05-21T07:50:59;19.80;99.60
2260;DHT22;333;48.800;9.530;2023-05-21T07:53:26;20.10;99.60
2260;DHT22;333;48.800;9.530;2023-05-21T07:55:57;20.10;99.60
2260;DHT22;333;48.800;9.530;2023-05-21T07:58:25;20.00;99.60
2260;DHT22;333;48.800;9.530;2023-05-21T08:00:52;20.30;99.60
2260;DHT22;333;48.800;9.530;2023-05-21T08:03:19;20.60;99.60
2260;DHT22;333;48.800;9.530;2023-05-21T08:05:46;20.80;99.60
2260;DHT22;333;48.800;9.530;2023-05-21T08:08:15;21.10;99.60
2260;DHT22;333;48.800;9.530;2023-05-21T08:10:42;21.10;99.60
2260;DHT22;333;48.800;9.530;2023-05-21T08:13:10;21.00;99.60
2260;DHT22;333;48.800;9.530;2023-05-21T08:15:38;21.20;99.60
2260;DHT22;333;48.800;9.530;2023-05-21T08:18:05;21.30;99.60
2260;DHT22;333;48.800;9.530;2023-05-21T08:20:32;21.60;99.60
2260;DHT22;333;48.800;9.530;2023-05-21T08:23:00;21.50;99.60
2260;DHT22;333;48.800;9.530;2023-05-21T08:25:27;21.40;99.60
2260;DHT22;333;48.800;9.530;2023-05-21T08:27:54;21.30;99.60
2260;DHT22;333;48.800;9.530;2023-05-21T08:30:21;21.30;99.60
2260;DHT22;333;48.800;9.530;2023-05-21T08:32:50;21.40;99.60
2260;DHT22;333;48.800;9.530;2023-05-21T08:35:16;21.80;99.60
2260;DHT22;333;48.800;9.530;2023-05-21T08:37:43;21.70;97.60
2260;DHT22;333;48.800;9.530;2023-05-21T08:40:11;21.80;99.60
2260;DHT22;333;48.800;9.530;2023-05-21T08:42:43;22.20;99.60
2260;DHT22;333;48.800;9.530;2023-05-21T08:45:11;22.40;98.20
2260;DHT22;333;48.800;9.530;2023-05-21T08:47:41;22.60;97.30
2260;DHT22;333;48.800;9.530;2023-05-21T08:50:11;22.60;96.40
2260;DHT22;333;48.800;9.530;2023-05-21T08:52:39;22.40;98.30
2260;DHT22;333;48.800;9.530;2023-05-21T08:55:07;22.60;97.00
2260;DHT22;333;48.800;9.530;2023-05-21T08:57:35;22.90;95.00
2260;DHT22;333;48.800;9.530;2023-05-21T09:00:04;22.60;96.70
2260;DHT22;333;48.800;9.530;2023-05-21T09:02:33;22.90;95.50
2260;DHT22;333;48.800;9.530;2023-05-21T09:05:01;23.00;94.60
2260;DHT22;333;48.800;9.530;2023-05-21T09:07:35;23.20;93.70
2260;DHT22;333;48.800;9.530;2023-05-21T09:10:06;23.40;93.90
2260;DHT22;333;48.800;9.530;2023-05-21T09:12:34;23.40;93.50
2260;DHT22;333;48.800;9.530;2023-05-21T09:15:02;23.10;93.30
2260;DHT22;333;48.800;9.530;2023-05-21T09:17:30;23.20;93.80
2260;DHT22;333;48.800;9.530;2023-05-21T09:20:08;23.30;93.60
2260;DHT22;333;48.800;9.530;2023-05-21T09:22:39;23.50;94.80
2260;DHT22;333;48.800;9.530;2023-05-21T09:25:08;23.60;93.00
2260;DHT22;333;48.800;9.530;2023-05-21T09:27:36;23.70;94.10
2260;DHT22;333;48.800;9.530;2023-05-21T09:30:04;23.90;93.20
2260;DHT22;333;48.800;9.530;2023-05-21T09:32:32;24.10;92.90
2260;DHT22;333;48.800;9.530;2023-05-21T09:35:06;24.10;90.50
2260;DHT22;333;48.800;9.530;2023-05-21T09:37:37;24.20;90.80
2260;DHT22;333;48.800;9.530;2023-05-21T09:40:10;24.20;92.90
2260;DHT22;333;48.800;9.530;2023-05-21T09:42:38;24.30;90.50
2260;DHT22;333;48.800;9.530;2023-05-21T09:45:06;24.30;90.60
2260;DHT22;333;48.800;9.530;2023-05-21T09:47:33;24.40;89.90
2260;DHT22;333;48.800;9.530;2023-05-21T09:50:00;24.10;90.30
2260;DHT22;333;48.800;9.530;2023-05-21T09:52:27;24.20;90.10
2260;DHT22;333;48.800;9.530;2023-05-21T09:54:56;24.20;89.60
2260;DHT22;333;48.800;9.530;2023-05-21T09:57:24;24.20;89.90
2260;DHT22;333;48.800;9.530;2023-05-21T09:59:51;24.10;91.70
2260;DHT22;333;48.800;9.530;2023-05-21T10:02:20;24.20;90.50
2260;DHT22;333;48.800;9.530;2023-05-21T10:04:48;24.40;89.40
2260;DHT22;333;48.800;9.530;2023-05-21T10:07:17;24.20;87.90
2260;DHT22;333;48.800;9.530;2023-05-21T10:09:46;24.20;89.80
2260;DHT22;333;48.800;9.530;2023-05-21T10:12:17;24.40;89.60
2260;DHT22;333;48.800;9.530;2023-05-21T10:14:47;24.70;89.70
2260;DHT22;333;48.800;9.530;2023-05-21T10:17:17;25.00;88.20
2260;DHT22;333;48.800;9.530;2023-05-21T10:19:45;25.20;88.60
2260;DHT22;333;48.800;9.530;2023-05-21T10:22:13;25.10;87.40
2260;DHT22;333;48.800;9.530;2023-05-21T10:24:42;25.00;85.80
2260;DHT22;333;48.800;9.530;2023-05-21T10:27:11;25.40;87.40
2260;DHT22;333;48.800;9.530;2023-05-21T10:29:40;25.60;86.90
2260;DHT22;333;48.800;9.530;2023-05-21T10:32:11;25.90;86.00
2260;DHT22;333;48.800;9.530;2023-05-21T10:34:41;25.40;84.10
2260;DHT22;333;48.800;9.530;2023-05-21T10:37:08;25.40;86.00
2260;DHT22;333;48.800;9.530;2023-05-21T10:39:38;25.50;84.80
2260;DHT22;333;48.800;9.530;2023-05-21T10:42:15;25.40;87.10
2260;DHT22;333;48.800;9.530;2023-05-21T10:44:59;25.70;83.50
2260;DHT22;333;48.800;9.530;2023-05-21T10:51:03;25.00;85.80
2260;DHT22;333;48.800;9.530;2023-05-21T10:53:44;25.50;85.30
2260;DHT22;333;48.800;9.530;2023-05-21T10:56:19;25.80;83.40
2260;DHT22;333;48.800;9.530;2023-05-21T10:59:09;25.70;83.50
2260;DHT22;333;48.800;9.530;2023-05-21T11:01:41;26.20;85.80
2260;DHT22;333;48.800;9.530;2023-05-21T11:04:10;26.60;84.90
2260;DHT22;333;48.800;9.530;2023-05-21T11:06:40;27.00;82.20
2260;DHT22;333;48.800;9.530;2023-05-21T11:09:13;27.10;80.60
2260;DHT22;333;48.800;9.530;2023-05-21T11:11:44;26.70;82.00
2260;DHT22;333;48.800;9.530;2023-05-21T11:14:29;27.30;80.10
2260;DHT22;333;48.800;9.530;2023-05-21T11:17:01;27.70;79.20
2260;DHT22;333;48.800;9.530;2023-05-21T11:19:34;27.80;77.10
2260;DHT22;333;48.800;9.530;2023-05-21T11:22:05;27.60;77.50
2260;DHT22;333;48.800;9.530;2023-05-21T11:24:39;27.20;80.30
2260;DHT22;333;48.800;9.530;2023-05-21T11:27:06;27.00;80.20
2260;DHT22;333;48.800;9.530;2023-05-21T11:29:42;27.10;80.80
2260;DHT22;333;48.800;9.530;2023-05-21T11:32:12;27.10;79.60
2260;DHT22;333;48.800;9.530;2023-05-21T11:34:41;26.90;82.80
2260;DHT22;333;48.800;9.530;2023-05-21T11:37:28;27.00;81.40
2260;DHT22;333;48.800;9.530;2023-05-21T11:39:57;26.80;82.70
2260;DHT22;333;48.800;9.530;2023-05-21T11:42:29;26.80;83.00
2260;DHT22;333;48.800;9.530;2023-05-21T11:44:57;26.80;81.70
2260;DHT22;333;48.800;9.530;2023-05-21T11:47:26;26.80;84.90
2260;DHT22;333;48.800;9.530;2023-05-21T11:49:53;27.00;83.20
2260;DHT22;333;48.800;9.530;2023-05-21T11:52:21;26.90;82.10
2260;DHT22;333;48.800;9.530;2023-05-21T11:54:50;26.90;81.60
2260;DHT22;333;48.800;9.530;2023-05-21T11:57:20;27.20;82.20
2260;DHT22;333;48.800;9.530;2023-05-21T11:59:48;27.40;82.30
2260;DHT22;333;48.800;9.530;2023-05-21T12:02:17;27.40;80.40
2260;DHT22;333;48.800;9.530;2023-05-21T12:04:49;27.50;81.40
2260;DHT22;333;48.800;9.530;2023-05-21T12:07:16;27.40;80.50
2260;DHT22;333;48.800;9.530;2023-05-21T12:09:45;27.50;80.50
2260;DHT22;333;48.800;9.530;2023-05-21T12:12:14;28.10;80.20
2260;DHT22;333;48.800;9.530;2023-05-21T12:14:43;28.00;79.40
2260;DHT22;333;48.800;9.530;2023-05-21T12:17:11;27.50;78.50
2260;DHT22;333;48.800;9.530;2023-05-21T12:19:39;27.50;80.80
2260;DHT22;333;48.800;9.530;2023-05-21T12:22:08;27.80;78.40
2260;DHT22;333;48.800;9.530;2023-05-21T12:24:36;27.70;79.00
2260;DHT22;333;48.800;9.530;2023-05-21T12:27:05;27.80;76.50
2260;DHT22;333;48.800;9.530;2023-05-21T12:29:35;27.40;78.90
2260;DHT22;333;48.800;9.530;2023-05-21T12:32:04;27.70;77.90
2260;DHT22;333;48.800;9.530;2023-05-21T12:34:36;27.70;79.40
2260;DHT22;333;48.800;9.530;2023-05-21T12:37:04;27.70;79.20
2260;DHT22;333;48.800;9.530;2023-05-21T12:39:36;27.80;78.40
2260;DHT22;333;48.800;9.530;2023-05-21T12:42:04;28.20;76.20
2260;DHT22;333;48.800;9.530;2023-05-21T12:44:31;28.40;76.70
2260;DHT22;333;48.800;9.530;2023-05-21T12:46:58;28.70;77.90
2260;DHT22;333;48.800;9.530;2023-05-21T12:49:33;28.50;76.90
2260;DHT22;333;48.800;9.530;2023-05-21T12:52:02;28.30;76.90
2260;DHT22;333;48.800;9.530;2023-05-21T12:54:33;28.20;77.70
2260;DHT22;333;48.800;9.530;2023-05-21T12:57:08;28.40;77.20
2260;DHT22;333;48.800;9.530;2023-05-21T12:59:48;27.80;77.00
2260;DHT22;333;48.800;9.530;2023-05-21T13:02:18;28.10;77.10
2260;DHT22;333;48.800;9.530;2023-05-21T13:04:45;28.40;77.90
2260;DHT22;333;48.800;9.530;2023-05-21T13:07:13;28.80;76.20
2260;DHT22;333;48.800;9.530;2023-05-21T13:09:41;28.90;74.60
2260;DHT22;333;48.800;9.530;2023-05-21T13:12:09;29.40;75.10
2260;DHT22;333;48.800;9.530;2023-05-21T13:14:36;29.60;73.30
2260;DHT22;333;48.800;9.530;2023-05-21T13:17:03;29.50;73.50
2260;DHT22;333;48.800;9.530;2023-05-21T13:19:31;29.10;74.70
2260;DHT22;333;48.800;9.530;2023-05-21T13:21:58;28.90;73.30
2260;DHT22;333;48.800;9.530;2023-05-21T13:24:25;29.10;73.90
2260;DHT22;333;48.800;9.530;2023-05-21T13:26:53;29.00;71.10
2260;DHT22;333;48.800;9.530;2023-05-21T13:29:20;28.50;72.50
2260;DHT22;333;48.800;9.530;2023-05-21T13:31:47;28.50;74.70
2260;DHT22;333;48.800;9.530;2023-05-21T13:34:14;28.30;74.00
2260;DHT22;333;48.800;9.530;2023-05-21T13:36:41;28.10;76.30
2260;DHT22;333;48.800;9.530;2023-05-21T13:39:08;28.20;78.70
2260;DHT22;333;48.800;9.530;2023-05-21T13:41:36;28.10;76.60
2260;DHT22;333;48.800;9.530;2023-05-21T13:44:04;28.00;76.10
2260;DHT22;333;48.800;9.530;2023-05-21T13:46:31;27.90;77.40
2260;DHT22;333;48.800;9.530;2023-05-21T13:49:04;27.80;76.80
2260;DHT22;333;48.800;9.530;2023-05-21T13:51:31;27.60;76.50
2260;DHT22;333;48.800;9.530;2023-05-21T13:53:58;27.70;78.50
2260;DHT22;333;48.800;9.530;2023-05-21T13:56:25;27.50;77.90
2260;DHT22;333;48.800;9.530;2023-05-21T13:58:52;27.60;76.80
2260;DHT22;333;48.800;9.530;2023-05-21T14:01:20;27.80;77.10
2260;DHT22;333;48.800;9.530;2023-05-21T14:03:47;27.70;77.40
2260;DHT22;333;48.800;9.530;2023-05-21T14:06:14;27.60;78.20
2260;DHT22;333;48.800;9.530;2023-05-21T14:08:41;27.70;76.10
2260;DHT22;333;48.800;9.530;2023-05-21T14:11:08;27.80;77.40
2260;DHT22;333;48.800;9.530;2023-05-21T14:13:36;27.70;77.20
2260;DHT22;333;48.800;9.530;2023-05-21T14:16:03;27.80;78.40
2260;DHT22;333;48.800;9.530;2023-05-21T14:18:32;27.90;78.10
2260;DHT22;333;48.800;9.530;2023-05-21T14:20:59;28.30;77.70
2260;DHT22;333;48.800;9.530;2023-05-21T14:23:26;28.60;76.40
2260;DHT22;333;48.800;9.530;2023-05-21T14:25:53;28.80;75.50
2260;DHT22;333;48.800;9.530;2023-05-21T14:28:20;29.10;76.90
2260;DHT22;333;48.800;9.530;2023-05-21T14:30:47;29.30;76.10
2260;DHT22;333;48.800;9.530;2023-05-21T14:33:14;29.40;75.90
2260;DHT22;333;48.800;9.530;2023-05-21T14:35:43;29.60;75.20
2260;DHT22;333;48.800;9.530;2023-05-21T14:38:12;29.90;74.20
2260;DHT22;333;48.800;9.530;2023-05-21T14:40:39;30.10;72.80
2260;DHT22;333;48.800;9.530;2023-05-21T14:43:06;30.20;72.30
2260;DHT22;333;48.800;9.530;2023-05-21T14:45:33;29.90;73.50
2260;DHT22;333;48.800;9.530;2023-05-21T14:48:01;29.40;74.90
2260;DHT22;333;48.800;9.530;2023-05-21T14:50:32;29.60;75.70
2260;DHT22;333;48.800;9.530;2023-05-21T14:53:03;29.60;74.50
2260;DHT22;333;48.800;9.530;2023-05-21T14:55:31;30.10;72.30
2260;DHT22;333;48.800;9.530;2023-05-21T14:57:59;29.60;72.90
2260;DHT22;333;48.800;9.530;2023-05-21T15:00:26;29.50;74.50
2260;DHT22;333;48.800;9.530;2023-05-21T15:02:53;30.00;72.80
2260;DHT22;333;48.800;9.530;2023-05-21T15:05:20;30.40;72.10
2260;DHT22;333;48.800;9.530;2023-05-21T15:07:47;30.40;71.80
2260;DHT22;333;48.800;9.530;2023-05-21T15:10:16;30.80;71.50
2260;DHT22;333;48.800;9.530;2023-05-21T15:12:43;30.70;71.50
2260;DHT22;333;48.800;9.530;2023-05-21T15:15:10;30.10;72.80
2260;DHT22;333;48.800;9.530;2023-05-21T15:17:38;29.40;73.90
2260;DHT22;333;48.800;9.530;2023-05-21T15:20:06;28.60;75.90
2260;DHT22;333;48.800;9.530;2023-05-21T15:22:34;28.30;76.10
2260;DHT22;333;48.800;9.530;2023-05-21T15:25:02;28.40;76.50
2260;DHT22;333;48.800;9.530;2023-05-21T15:27:30;27.90;77.70
2260;DHT22;333;48.800;9.530;2023-05-21T15:29:58;28.10;77.60
2260;DHT22;333;48.800;9.530;2023-05-21T15:32:25;28.00;77.20
2260;DHT22;333;48.800;9.530;2023-05-21T15:34:52;28.00;78.00
2260;DHT22;333;48.800;9.530;2023-05-21T15:37:19;27.90;77.90
2260;DHT22;333;48.800;9.530;2023-05-21T15:39:47;28.10;77.50
2260;DHT22;333;48.800;9.530;2023-05-21T15:42:14;28.10;77.30
2260;DHT22;333;48.800;9.530;2023-05-21T15:44:44;27.90;77.70
2260;DHT22;333;48.800;9.530;2023-05-21T15:47:11;27.60;78.70
2260;DHT22;333;48.800;9.530;2023-05-21T15:49:38;27.80;78.70
2260;DHT22;333;48.800;9.530;2023-05-21T15:52:05;27.80;78.80
2260;DHT22;333;48.800;9.530;2023-05-21T15:54:32;28.00;79.40
2260;DHT22;333;48.800;9.530;2023-05-21T15:56:59;28.10;78.50
2260;DHT22;333;48.800;9.530;2023-05-21T15:59:26;28.10;78.90
2260;DHT22;333;48.800;9.530;2023-05-21T16:01:55;28.10;78.90
2260;DHT22;333;48.800;9.530;2023-05-21T16:04:22;28.20;79.50
2260;DHT22;333;48.800;9.530;2023-05-21T16:06:49;28.10;78.50
2260;DHT22;333;48.800;9.530;2023-05-21T16:09:16;28.20;78.10
2260;DHT22;333;48.800;9.530;2023-05-21T16:11:43;28.10;78.10
2260;DHT22;333;48.800;9.530;2023-05-21T16:14:10;28.00;79.50
2260;DHT22;333;48.800;9.530;2023-05-21T16:16:38;28.00;79.30
2260;DHT22;333;48.800;9.530;2023-05-21T16:19:06;28.10;80.40
2260;DHT22;333;48.800;9.530;2023-05-21T16:21:33;28.20;80.50
2260;DHT22;333;48.800;9.530;2023-05-21T16:24:00;28.40;79.90
2260;DHT22;333;48.800;9.530;2023-05-21T16:26:27;28.60;78.80